Ubon Ratchathani, Thailand
Current Conditions -  °F | °C
As of 7:00 PM on Sunday 25 Jan 2015 (Local Time) from VTUU Reporting Station
Clear Clear  
Wind Chill: 79°   Ceiling: Unl
Heat Index: 80°   Visibility: 4mi
Dew Point: 59°   Wind: 2mph
Humidity: 51%   Direction: 30°NNE
Pressure: 29.91"   Gusts: NA
Location:  15.25°N, 104.83°E
Report Text: VTUU 251200Z 03002KT 7000 NSC 26/15 Q1013 A2992
Loading
Personal Weather Stations






























Interactive Weather Map New forecast layout! Learn more

10-Day Weather Forecast

Advertisements
Track Severe Weather on mobile